createdAt,value
2022-12-06T00:01:18.468Z,50.44
2022-12-06T00:03:45.325Z,50.28
2022-12-06T00:06:12.861Z,50.25
2022-12-06T00:08:39.505Z,50.06
2022-12-06T00:11:06.209Z,50.11
2022-12-06T00:13:32.537Z,50.38
2022-12-06T00:16:02.833Z,50.18
2022-12-06T00:18:29.336Z,50.18
2022-12-06T00:20:55.684Z,50.18
2022-12-06T00:23:22.012Z,49.82
2022-12-06T00:25:48.336Z,49.93
2022-12-06T00:28:14.652Z,50.08
2022-12-06T00:30:41.022Z,49.92
2022-12-06T00:33:07.354Z,49.74
2022-12-06T00:35:33.668Z,50.23
2022-12-06T00:38:00.007Z,50.14
2022-12-06T00:40:26.328Z,49.91
2022-12-06T00:42:52.676Z,50.07
2022-12-06T00:45:18.993Z,49.93
2022-12-06T00:47:45.325Z,50.33
2022-12-06T00:50:11.924Z,50.06
2022-12-06T00:52:38.306Z,50.26
2022-12-06T00:55:04.679Z,50.25
2022-12-06T00:57:31.016Z,50.24
2022-12-06T00:59:57.561Z,50.24
2022-12-06T01:02:24.129Z,50.21
2022-12-06T01:04:50.441Z,50.38
2022-12-06T01:07:16.777Z,50.36
2022-12-06T01:09:43.090Z,50.23
2022-12-06T01:12:09.413Z,50.24
2022-12-06T01:14:35.720Z,50.29
2022-12-06T01:17:02.063Z,50.23
2022-12-06T01:19:28.400Z,50.26
2022-12-06T01:21:54.713Z,50.27
2022-12-06T01:24:21.059Z,50.21
2022-12-06T01:26:47.385Z,50.35
2022-12-06T01:29:13.703Z,50.10
2022-12-06T01:31:40.012Z,50.20
2022-12-06T01:34:13.165Z,50.13
2022-12-06T01:36:39.480Z,50.14
2022-12-06T01:39:10.041Z,50.20
2022-12-06T01:41:36.390Z,49.96
2022-12-06T01:44:02.922Z,50.31
2022-12-06T01:46:30.215Z,50.14
2022-12-06T01:48:58.925Z,50.14
2022-12-06T01:51:25.236Z,50.15
2022-12-06T01:53:51.562Z,50.27
2022-12-06T01:56:17.908Z,50.20
2022-12-06T01:58:44.257Z,50.26
2022-12-06T02:01:10.626Z,50.12
2022-12-06T02:03:37.118Z,50.30
2022-12-06T02:06:03.956Z,50.42
2022-12-06T02:08:30.283Z,50.39
2022-12-06T02:10:56.600Z,50.05
2022-12-06T02:13:22.916Z,50.27
2022-12-06T02:15:51.830Z,50.36
2022-12-06T02:18:34.910Z,50.25
2022-12-06T02:21:07.967Z,50.25
2022-12-06T02:23:46.515Z,50.22
2022-12-06T02:26:22.192Z,49.99
2022-12-06T02:29:00.039Z,50.12
2022-12-06T02:31:27.326Z,50.36
2022-12-06T02:33:55.426Z,50.31
2022-12-06T02:36:30.735Z,50.25
2022-12-06T02:38:57.957Z,50.29
2022-12-06T02:41:25.568Z,50.05
2022-12-06T02:43:53.776Z,50.29
2022-12-06T02:46:20.289Z,50.07
2022-12-06T02:48:46.625Z,50.15
2022-12-06T02:51:13.348Z,50.12
2022-12-06T02:53:40.739Z,50.14
2022-12-06T02:56:07.061Z,50.11
2022-12-06T02:58:37.029Z,50.09
2022-12-06T03:01:04.564Z,49.99
2022-12-06T03:03:49.739Z,50.21
2022-12-06T03:06:18.431Z,50.34
2022-12-06T03:08:57.723Z,50.06
2022-12-06T03:11:24.472Z,50.02
2022-12-06T03:14:00.735Z,50.34
2022-12-06T03:16:28.207Z,50.27
2022-12-06T03:19:03.409Z,50.36
2022-12-06T03:21:33.494Z,50.36
2022-12-06T03:23:59.925Z,50.34
2022-12-06T03:26:27.676Z,50.43
2022-12-06T03:28:54.523Z,50.35
2022-12-06T03:31:22.810Z,50.36
2022-12-06T03:33:49.912Z,50.21
2022-12-06T03:36:16.220Z,50.15
2022-12-06T03:38:46.563Z,50.23
2022-12-06T03:41:12.864Z,50.15
2022-12-06T03:43:39.182Z,50.34
2022-12-06T03:46:12.787Z,50.07
2022-12-06T03:48:40.743Z,50.08
2022-12-06T03:51:10.761Z,49.92
2022-12-06T03:53:44.273Z,50.15
2022-12-06T03:56:10.581Z,50.20
2022-12-06T03:58:36.902Z,50.52
2022-12-06T04:01:04.651Z,50.33
2022-12-06T04:03:31.013Z,50.84
2022-12-06T04:05:57.364Z,50.55
2022-12-06T04:08:23.807Z,50.51
2022-12-06T04:10:50.161Z,50.54
2022-12-06T04:13:19.792Z,50.38
2022-12-06T04:15:46.466Z,50.44
2022-12-06T04:18:16.236Z,50.51
2022-12-06T04:21:02.402Z,50.78
2022-12-06T04:23:28.858Z,50.80
2022-12-06T04:25:55.233Z,50.69
2022-12-06T04:28:40.177Z,50.62
2022-12-06T04:31:25.023Z,50.37
2022-12-06T04:34:10.029Z,50.64
2022-12-06T04:36:55.603Z,50.51
2022-12-06T04:39:21.928Z,50.37
2022-12-06T04:42:06.952Z,50.59
2022-12-06T04:44:33.273Z,50.75
2022-12-06T04:47:00.101Z,50.77
2022-12-06T04:49:26.553Z,50.68
2022-12-06T04:51:53.257Z,50.46
2022-12-06T04:54:19.945Z,50.73
2022-12-06T04:56:46.261Z,50.51
2022-12-06T04:59:12.658Z,50.49
2022-12-06T05:01:38.972Z,50.51
2022-12-06T05:04:05.448Z,50.41
2022-12-06T05:06:31.819Z,50.33
2022-12-06T05:08:58.135Z,50.37
2022-12-06T05:11:24.447Z,50.34
2022-12-06T05:13:50.768Z,50.94
2022-12-06T05:16:17.136Z,50.90
2022-12-06T05:18:43.501Z,50.80
2022-12-06T05:21:12.732Z,50.83
2022-12-06T05:23:39.085Z,50.89
2022-12-06T05:26:06.159Z,50.61
2022-12-06T05:28:32.755Z,50.65
2022-12-06T05:30:59.112Z,50.76
2022-12-06T05:33:25.431Z,50.43
2022-12-06T05:35:51.763Z,50.72
2022-12-06T05:38:18.422Z,50.71
2022-12-06T05:40:46.061Z,50.67
2022-12-06T05:43:12.381Z,50.59
2022-12-06T05:45:38.792Z,50.65
2022-12-06T05:48:05.145Z,50.74
2022-12-06T05:50:31.454Z,50.63
2022-12-06T05:52:58.025Z,50.57
2022-12-06T05:55:24.385Z,50.61
2022-12-06T05:57:50.702Z,50.43
2022-12-06T06:00:17.525Z,50.66
2022-12-06T06:02:43.951Z,50.37
2022-12-06T06:05:10.381Z,50.37
2022-12-06T06:07:36.759Z,50.61
2022-12-06T06:10:03.548Z,51.31
2022-12-06T06:12:29.884Z,51.35
2022-12-06T06:14:56.203Z,51.51
2022-12-06T06:17:24.168Z,51.78
2022-12-06T06:19:51.617Z,52.05
2022-12-06T06:22:19.014Z,52.35
2022-12-06T06:24:45.344Z,52.37
2022-12-06T06:27:11.687Z,53.07
2022-12-06T06:29:43.625Z,53.94
2022-12-06T06:32:12.646Z,53.64
2022-12-06T06:34:39.028Z,53.69
2022-12-06T06:37:05.377Z,54.28
2022-12-06T06:39:31.703Z,53.90
2022-12-06T06:41:58.029Z,53.11
2022-12-06T06:44:24.357Z,50.95
2022-12-06T06:46:50.684Z,50.39
2022-12-06T06:49:18.704Z,49.78
2022-12-06T06:51:45.321Z,49.57
2022-12-06T06:54:12.478Z,48.85
2022-12-06T06:56:38.818Z,48.53
2022-12-06T06:59:05.143Z,48.10
2022-12-06T07:01:31.576Z,47.46
2022-12-06T07:03:58.612Z,47.40
2022-12-06T07:06:25.014Z,46.88
2022-12-06T07:08:51.345Z,46.82
2022-12-06T07:11:17.663Z,46.67
2022-12-06T07:13:48.235Z,46.95
2022-12-06T07:16:18.856Z,46.17
2022-12-06T07:18:45.249Z,42.84
2022-12-06T07:21:11.950Z,40.87
2022-12-06T07:23:38.281Z,39.66
2022-12-06T07:26:08.207Z,38.55
2022-12-06T07:28:38.010Z,38.85
2022-12-06T07:31:08.127Z,39.39
2022-12-06T07:33:34.495Z,39.20
2022-12-06T07:36:11.930Z,39.52
2022-12-06T07:38:39.125Z,37.94
2022-12-06T07:41:28.888Z,38.33
2022-12-06T07:44:14.428Z,38.46
2022-12-06T07:46:40.830Z,38.48
2022-12-06T07:49:07.156Z,38.95
2022-12-06T07:51:33.481Z,38.69
2022-12-06T07:53:59.796Z,40.31
2022-12-06T07:56:26.125Z,41.72
2022-12-06T07:58:52.457Z,41.67
2022-12-06T08:01:18.799Z,41.63
2022-12-06T08:03:45.145Z,42.12
2022-12-06T08:06:11.471Z,42.14
2022-12-06T08:08:38.340Z,43.16
2022-12-06T08:11:05.569Z,43.98
2022-12-06T08:13:32.166Z,44.27
2022-12-06T08:15:58.542Z,45.12
2022-12-06T08:18:25.632Z,45.50
2022-12-06T08:20:53.157Z,45.68
2022-12-06T08:23:19.598Z,45.19
2022-12-06T08:25:45.951Z,45.02
2022-12-06T08:28:12.285Z,46.12
2022-12-06T08:30:41.452Z,45.96
2022-12-06T08:33:07.830Z,46.24
2022-12-06T08:35:36.321Z,46.23
2022-12-06T08:38:02.718Z,46.22
2022-12-06T08:40:29.092Z,46.08
2022-12-06T08:42:55.407Z,46.03
2022-12-06T08:45:21.802Z,46.03
2022-12-06T08:47:48.141Z,46.40
2022-12-06T08:50:14.451Z,46.18
2022-12-06T08:52:40.781Z,46.91
2022-12-06T08:55:07.186Z,47.48
2022-12-06T08:57:33.511Z,47.07
2022-12-06T09:00:00.157Z,47.06
2022-12-06T09:02:26.716Z,46.74
2022-12-06T09:04:53.081Z,46.35
2022-12-06T09:07:19.458Z,46.53
2022-12-06T09:09:46.161Z,46.63
2022-12-06T09:12:12.755Z,46.71
2022-12-06T09:14:39.067Z,46.85
2022-12-06T09:17:05.705Z,46.80
2022-12-06T09:19:32.029Z,47.07
2022-12-06T09:21:58.353Z,46.73
2022-12-06T09:24:24.677Z,46.78
2022-12-06T09:26:50.997Z,46.60
2022-12-06T09:29:17.344Z,46.54
2022-12-06T09:31:43.703Z,46.50
2022-12-06T09:34:10.288Z,46.32
2022-12-06T09:36:38.105Z,46.35
2022-12-06T09:39:05.757Z,46.39
2022-12-06T09:41:45.050Z,46.28
2022-12-06T09:44:28.285Z,46.48
2022-12-06T09:47:16.679Z,46.69
2022-12-06T09:49:45.809Z,46.50
2022-12-06T09:52:28.712Z,46.96
2022-12-06T09:55:14.073Z,46.81
2022-12-06T09:57:42.141Z,46.47
2022-12-06T10:00:11.732Z,46.87
2022-12-06T10:02:52.694Z,46.96
2022-12-06T10:05:25.255Z,47.09
2022-12-06T10:08:03.272Z,46.99
2022-12-06T10:10:35.765Z,47.33
2022-12-06T10:13:12.702Z,47.31
2022-12-06T10:15:52.983Z,47.19
2022-12-06T10:18:23.248Z,47.16
2022-12-06T10:21:08.137Z,47.27
2022-12-06T10:24:00.131Z,47.38
2022-12-06T10:26:33.998Z,47.14
2022-12-06T10:29:22.007Z,46.83
2022-12-06T10:32:10.756Z,47.05
2022-12-06T10:35:01.466Z,47.05
2022-12-06T10:37:34.576Z,47.28
2022-12-06T10:40:04.128Z,47.42
2022-12-06T10:42:32.940Z,47.05
2022-12-06T10:45:03.324Z,47.26
2022-12-06T10:47:31.754Z,46.93
2022-12-06T10:50:04.780Z,46.58
2022-12-06T10:52:41.488Z,46.93
2022-12-06T10:55:10.891Z,47.12
2022-12-06T10:57:48.999Z,47.02
2022-12-06T11:00:16.282Z,47.00
2022-12-06T11:02:57.031Z,47.02
2022-12-06T11:05:34.756Z,47.03
2022-12-06T11:08:03.262Z,46.82
2022-12-06T11:10:30.777Z,47.32
2022-12-06T11:12:58.799Z,47.31
2022-12-06T11:15:28.297Z,47.02
2022-12-06T11:18:02.819Z,46.88
2022-12-06T11:20:29.995Z,46.93
2022-12-06T11:23:06.037Z,47.09
2022-12-06T11:25:51.322Z,46.95
2022-12-06T11:28:37.473Z,47.11
2022-12-06T11:31:16.094Z,46.80
2022-12-06T11:33:42.672Z,46.52
2022-12-06T11:36:09.162Z,46.72
2022-12-06T11:38:35.529Z,46.88
2022-12-06T11:41:01.852Z,46.93
2022-12-06T11:43:29.540Z,46.48
2022-12-06T11:45:55.880Z,47.10
2022-12-06T11:48:22.913Z,46.66
2022-12-06T11:50:49.601Z,47.59
2022-12-06T11:53:18.602Z,47.22
2022-12-06T11:55:45.706Z,47.00
2022-12-06T11:58:16.298Z,47.24
2022-12-06T12:00:55.594Z,47.37
2022-12-06T12:03:28.875Z,47.05
2022-12-06T12:06:06.680Z,47.31
2022-12-06T12:08:33.125Z,47.11
2022-12-06T12:10:59.908Z,47.49
2022-12-06T12:13:44.582Z,47.27
2022-12-06T12:16:12.529Z,47.31
2022-12-06T12:18:40.132Z,46.95
2022-12-06T12:21:06.479Z,47.50
2022-12-06T12:23:33.380Z,46.96
2022-12-06T12:26:02.768Z,45.68
2022-12-06T12:28:30.151Z,45.68
2022-12-06T12:30:56.971Z,46.29
2022-12-06T12:33:23.811Z,46.64
2022-12-06T12:35:54.210Z,46.76
2022-12-06T12:38:25.614Z,46.51
2022-12-06T12:40:52.563Z,46.67
2022-12-06T12:43:22.729Z,46.99
2022-12-06T12:46:03.053Z,47.49
2022-12-06T12:48:29.634Z,47.02
2022-12-06T12:50:56.692Z,47.38
2022-12-06T12:53:41.928Z,47.46
2022-12-06T12:56:08.707Z,47.68
2022-12-06T12:58:36.308Z,47.74
2022-12-06T13:01:05.789Z,47.70
2022-12-06T13:03:50.645Z,47.83
2022-12-06T13:06:36.642Z,47.65
2022-12-06T13:09:03.091Z,47.49
2022-12-06T13:11:29.416Z,47.50
2022-12-06T13:13:55.761Z,47.72
2022-12-06T13:16:30.235Z,47.79
2022-12-06T13:18:57.047Z,47.89
2022-12-06T13:21:36.330Z,47.09
2022-12-06T13:24:12.108Z,47.34
2022-12-06T13:26:45.765Z,47.35
2022-12-06T13:29:21.319Z,47.47
2022-12-06T13:31:47.651Z,47.95
2022-12-06T13:34:16.994Z,47.19
2022-12-06T13:36:43.321Z,47.15
2022-12-06T13:39:27.788Z,47.18
2022-12-06T13:42:14.248Z,47.07
2022-12-06T13:44:59.829Z,47.54
2022-12-06T13:47:28.961Z,47.62
2022-12-06T13:50:14.162Z,47.82
2022-12-06T13:52:43.248Z,47.93
2022-12-06T13:55:25.005Z,47.88
2022-12-06T13:57:51.820Z,47.80
2022-12-06T14:00:30.377Z,47.94
2022-12-06T14:03:00.356Z,48.17
2022-12-06T14:05:45.606Z,48.00
2022-12-06T14:08:12.514Z,47.59
2022-12-06T14:10:38.894Z,47.68
2022-12-06T14:13:05.301Z,47.79
2022-12-06T14:15:31.620Z,47.24
2022-12-06T14:18:05.492Z,47.19
2022-12-06T14:20:35.933Z,47.36
2022-12-06T14:23:02.325Z,47.33
2022-12-06T14:25:29.553Z,47.49
2022-12-06T14:28:06.125Z,47.41
2022-12-06T14:30:32.994Z,47.36
2022-12-06T14:32:59.435Z,47.24
2022-12-06T14:35:29.207Z,47.40
2022-12-06T14:37:56.345Z,47.41
2022-12-06T14:40:45.369Z,47.06
2022-12-06T14:43:14.529Z,47.21
2022-12-06T14:45:40.857Z,47.29
2022-12-06T14:48:07.485Z,46.98
2022-12-06T14:50:41.305Z,47.19
2022-12-06T14:53:08.290Z,47.02
2022-12-06T14:55:35.388Z,47.17
2022-12-06T14:58:02.576Z,47.06
2022-12-06T15:00:36.224Z,47.17
2022-12-06T15:03:08.845Z,47.27
2022-12-06T15:05:36.105Z,46.98
2022-12-06T15:08:21.182Z,47.22
2022-12-06T15:11:36.683Z,47.09
2022-12-06T15:14:15.028Z,47.06
2022-12-06T15:16:41.589Z,47.26
2022-12-06T15:19:10.236Z,46.96
2022-12-06T15:21:36.575Z,47.41
2022-12-06T15:24:02.909Z,47.58
2022-12-06T15:26:29.240Z,47.17
2022-12-06T15:28:55.561Z,46.86
2022-12-06T15:31:28.547Z,46.55
2022-12-06T15:33:55.001Z,46.59
2022-12-06T15:36:24.876Z,46.23
2022-12-06T15:38:51.203Z,46.64
2022-12-06T15:41:18.451Z,46.58
2022-12-06T15:43:45.085Z,46.71
2022-12-06T15:46:15.975Z,46.36
2022-12-06T15:48:43.191Z,46.84
2022-12-06T15:51:11.695Z,47.02
2022-12-06T15:53:40.888Z,46.98
2022-12-06T15:56:09.353Z,46.61
2022-12-06T15:58:35.669Z,47.02
2022-12-06T16:01:01.990Z,47.01
2022-12-06T16:03:28.366Z,47.37
2022-12-06T16:05:55.873Z,47.04
2022-12-06T16:08:22.290Z,47.19
2022-12-06T16:11:11.388Z,47.41
2022-12-06T16:13:34.976Z,47.28
2022-12-06T16:16:01.369Z,47.34
2022-12-06T16:18:27.750Z,47.21
2022-12-06T16:20:54.138Z,47.12
2022-12-06T16:24:11.219Z,47.39
2022-12-06T16:26:27.943Z,47.34
2022-12-06T16:28:54.449Z,47.33
2022-12-06T16:31:20.850Z,47.42
2022-12-06T16:33:47.259Z,47.54
2022-12-06T16:36:15.219Z,47.26
2022-12-06T16:38:41.608Z,47.35
2022-12-06T16:41:09.007Z,47.42
2022-12-06T16:43:35.335Z,48.07
2022-12-06T16:46:17.896Z,47.52
2022-12-06T16:48:44.289Z,47.40
2022-12-06T16:51:10.613Z,47.33
2022-12-06T16:53:36.928Z,47.08
2022-12-06T16:56:03.282Z,47.35
2022-12-06T16:58:29.605Z,47.06
2022-12-06T17:00:56.270Z,46.99
2022-12-06T17:03:22.648Z,46.74
2022-12-06T17:05:48.991Z,46.83
2022-12-06T17:08:21.726Z,46.66
2022-12-06T17:10:48.541Z,46.91
2022-12-06T17:13:14.851Z,46.69
2022-12-06T17:15:41.212Z,45.02
2022-12-06T17:18:07.531Z,45.60
2022-12-06T17:20:33.846Z,45.98
2022-12-06T17:23:00.481Z,45.37
2022-12-06T17:25:26.833Z,44.82
2022-12-06T17:27:53.165Z,44.18
2022-12-06T17:30:19.961Z,44.00
2022-12-06T17:32:47.130Z,44.48
2022-12-06T17:35:14.246Z,45.56
2022-12-06T17:37:40.596Z,45.67
2022-12-06T17:40:07.209Z,45.66
2022-12-06T17:42:52.045Z,45.70
2022-12-06T17:45:23.247Z,45.67
2022-12-06T17:47:51.045Z,45.08
2022-12-06T17:50:17.425Z,45.25
2022-12-06T17:52:43.818Z,45.12
2022-12-06T17:55:12.241Z,44.71
2022-12-06T17:57:38.564Z,45.87
2022-12-06T18:00:05.139Z,45.73
2022-12-06T18:02:33.416Z,46.10
2022-12-06T18:05:01.072Z,46.62
2022-12-06T18:07:27.628Z,46.52
2022-12-06T18:09:54.054Z,46.73
2022-12-06T18:12:20.363Z,46.84
2022-12-06T18:14:46.714Z,46.73
2022-12-06T18:17:13.037Z,46.40
2022-12-06T18:19:40.729Z,46.51
2022-12-06T18:22:07.649Z,46.72
2022-12-06T18:24:36.077Z,46.68
2022-12-06T18:27:03.284Z,47.01
2022-12-06T18:29:29.608Z,47.25
2022-12-06T18:31:56.006Z,44.39
2022-12-06T18:34:22.418Z,42.63
2022-12-06T18:36:48.736Z,42.99
2022-12-06T18:39:16.220Z,43.41
2022-12-06T18:41:43.127Z,43.76
2022-12-06T18:44:09.452Z,44.68
2022-12-06T18:46:36.697Z,44.81
2022-12-06T18:49:03.036Z,45.17
2022-12-06T18:51:30.682Z,45.60
2022-12-06T18:53:57.278Z,45.74
2022-12-06T18:56:24.114Z,45.64
2022-12-06T18:58:50.425Z,46.03
2022-12-06T19:01:17.624Z,46.16
2022-12-06T19:03:43.983Z,46.41
2022-12-06T19:06:11.156Z,46.27
2022-12-06T19:08:39.037Z,46.54
2022-12-06T19:11:17.538Z,42.01
2022-12-06T19:13:48.897Z,40.71
2022-12-06T19:16:16.299Z,42.11
2022-12-06T19:18:42.681Z,39.15
2022-12-06T19:21:09.027Z,39.65
2022-12-06T19:23:35.349Z,40.18
2022-12-06T19:26:01.793Z,40.11
2022-12-06T19:28:28.416Z,40.98
2022-12-06T19:31:01.474Z,40.25
2022-12-06T19:33:27.925Z,40.02
2022-12-06T19:35:58.071Z,40.22
2022-12-06T19:38:25.029Z,40.30
2022-12-06T19:40:52.273Z,40.35
2022-12-06T19:43:41.950Z,40.72
2022-12-06T19:46:11.823Z,40.55
2022-12-06T19:48:38.197Z,40.80
2022-12-06T19:51:04.676Z,41.12
2022-12-06T19:53:34.731Z,41.24
2022-12-06T19:56:01.350Z,41.39
2022-12-06T19:58:27.690Z,41.47
2022-12-06T20:00:54.022Z,41.63
2022-12-06T20:03:20.706Z,41.80
2022-12-06T20:05:47.180Z,42.14
2022-12-06T20:08:13.614Z,42.44
2022-12-06T20:10:40.183Z,42.70
2022-12-06T20:13:06.507Z,43.33
2022-12-06T20:15:33.024Z,43.37
2022-12-06T20:17:59.504Z,43.44
2022-12-06T20:20:25.830Z,44.61
2022-12-06T20:22:52.151Z,44.42
2022-12-06T20:25:18.530Z,44.31
2022-12-06T20:27:54.277Z,44.57
2022-12-06T20:30:21.580Z,44.34
2022-12-06T20:32:48.179Z,44.24
2022-12-06T20:35:14.514Z,44.16
2022-12-06T20:37:40.824Z,44.52
2022-12-06T20:40:07.499Z,44.46
2022-12-06T20:42:33.816Z,44.35
2022-12-06T20:45:00.161Z,44.63
2022-12-06T20:47:26.535Z,44.45
2022-12-06T20:49:52.872Z,44.52
2022-12-06T20:52:19.188Z,44.74
2022-12-06T20:54:45.519Z,44.66
2022-12-06T20:57:11.833Z,44.77
2022-12-06T20:59:38.250Z,44.60
2022-12-06T21:02:05.105Z,44.85
2022-12-06T21:04:31.478Z,44.82
2022-12-06T21:06:57.805Z,44.85
2022-12-06T21:09:24.190Z,45.00
2022-12-06T21:11:50.542Z,44.91
2022-12-06T21:14:16.974Z,44.95
2022-12-06T21:16:43.303Z,45.03
2022-12-06T21:19:13.562Z,45.15
2022-12-06T21:21:40.277Z,44.97
2022-12-06T21:24:07.291Z,45.19
2022-12-06T21:26:33.723Z,45.34
2022-12-06T21:29:00.021Z,45.25
2022-12-06T21:31:27.349Z,45.27
2022-12-06T21:33:53.785Z,45.15
2022-12-06T21:36:20.109Z,45.06
2022-12-06T21:38:46.420Z,45.28
2022-12-06T21:41:12.846Z,45.24
2022-12-06T21:43:39.178Z,45.59
2022-12-06T21:46:06.252Z,45.51
2022-12-06T21:48:32.604Z,45.64
2022-12-06T21:51:05.460Z,45.68
2022-12-06T21:53:31.825Z,45.48
2022-12-06T21:55:58.236Z,45.70
2022-12-06T21:58:24.557Z,45.78
2022-12-06T22:00:50.913Z,45.67
2022-12-06T22:03:22.763Z,45.73
2022-12-06T22:05:49.641Z,45.64
2022-12-06T22:08:16.017Z,45.78
2022-12-06T22:10:42.491Z,45.88
2022-12-06T22:13:08.829Z,45.85
2022-12-06T22:15:35.237Z,45.44
2022-12-06T22:18:01.689Z,45.67
2022-12-06T22:20:28.016Z,45.90
2022-12-06T22:22:54.337Z,45.94
2022-12-06T22:25:20.664Z,46.04
2022-12-06T22:27:46.992Z,45.78
2022-12-06T22:30:13.319Z,45.89
2022-12-06T22:32:39.647Z,46.13
2022-12-06T22:35:06.162Z,46.25
2022-12-06T22:37:32.483Z,46.06
2022-12-06T22:39:58.988Z,46.36
2022-12-06T22:42:25.386Z,46.27
2022-12-06T22:44:51.696Z,46.24
2022-12-06T22:47:18.095Z,46.14
2022-12-06T22:49:44.427Z,46.34
2022-12-06T22:52:10.755Z,46.41
2022-12-06T22:54:37.070Z,46.32
2022-12-06T22:57:03.396Z,46.35
2022-12-06T22:59:29.711Z,46.28
2022-12-06T23:01:56.101Z,46.23
2022-12-06T23:04:22.449Z,46.11
2022-12-06T23:06:48.801Z,46.02
2022-12-06T23:09:15.758Z,46.05
2022-12-06T23:11:42.153Z,46.15
2022-12-06T23:14:08.644Z,46.31
2022-12-06T23:16:35.033Z,46.55
2022-12-06T23:19:01.580Z,46.18
2022-12-06T23:21:28.707Z,46.47
2022-12-06T23:23:55.721Z,46.52
2022-12-06T23:26:22.863Z,46.50
2022-12-06T23:28:49.228Z,46.56
2022-12-06T23:31:16.650Z,46.57
2022-12-06T23:33:43.061Z,46.57
2022-12-06T23:36:10.336Z,46.43
2022-12-06T23:38:36.677Z,46.43
2022-12-06T23:41:03.831Z,46.14
2022-12-06T23:43:30.182Z,46.51
2022-12-06T23:46:00.016Z,46.29
2022-12-06T23:48:29.445Z,46.43
2022-12-06T23:51:02.152Z,46.26
2022-12-06T23:53:28.729Z,46.34
2022-12-06T23:55:58.853Z,46.36
2022-12-06T23:58:25.385Z,46.46
